Davison, Michigan
Current Conditions -  °F | °C
As of 2:54 PM on Thursday 30 Oct 2014 (Local Time) from KD95 Reporting Station
Overcast Overcast  
Wind Chill: 45°   Ceiling: 4400
Heat Index: 47°   Visibility: 10mi
Dew Point: 33°   Wind: 6mph
Humidity: 57%   Direction: 270°W
Pressure: 30.07"   Gusts: NA
Location:  43.03°N, 83.51°W
Report Text: KD95 301854Z AUTO 27005KT 10SM OVC044 09/01 A3007 RMK AO2 T00860005
Loading
Personal Weather Stations






























Interactive Weather Map
Tropical Storm Tracking
New forecast layout! Learn more

10-Day Weather Forecast

Advertisements
Track Severe Weather on mobile